sensor_id;sensor_type;location;lat;lon;timestamp;pressure;altitude;pressure_sealevel;temperature;humidity
71907;BME280;59781;52.090;5.030;2022-08-18T00:02:25;101298.94;;;18.88;100.00
71907;BME280;59781;52.090;5.030;2022-08-18T00:04:56;101298.53;;;18.78;100.00
71907;BME280;59781;52.090;5.030;2022-08-18T00:07:30;101295.63;;;18.73;100.00
71907;BME280;59781;52.090;5.030;2022-08-18T00:09:59;101286.19;;;18.69;100.00
71907;BME280;59781;52.090;5.030;2022-08-18T00:12:35;101284.69;;;18.66;100.00
71907;BME280;59781;52.090;5.030;2022-08-18T00:15:10;101284.50;;;18.61;100.00
71907;BME280;59781;52.090;5.030;2022-08-18T00:17:39;101289.28;;;18.85;100.00
71907;BME280;59781;52.090;5.030;2022-08-18T00:20:09;101281.97;;;18.73;100.00
71907;BME280;59781;52.090;5.030;2022-08-18T00:22:37;101293.09;;;18.71;100.00
71907;BME280;59781;52.090;5.030;2022-08-18T00:25:05;101290.34;;;18.58;100.00
71907;BME280;59781;52.090;5.030;2022-08-18T00:27:35;101303.41;;;18.49;100.00
71907;BME280;59781;52.090;5.030;2022-08-18T00:30:06;101302.34;;;18.50;100.00
71907;BME280;59781;52.090;5.030;2022-08-18T00:32:38;101293.09;;;18.45;100.00
71907;BME280;59781;52.090;5.030;2022-08-18T00:35:16;101292.91;;;18.33;100.00
71907;BME280;59781;52.090;5.030;2022-08-18T00:37:47;101285.78;;;18.25;100.00
71907;BME280;59781;52.090;5.030;2022-08-18T00:40:21;101284.75;;;18.20;100.00
71907;BME280;59781;52.090;5.030;2022-08-18T00:42:52;101276.38;;;18.21;100.00
71907;BME280;59781;52.090;5.030;2022-08-18T00:45:26;101289.13;;;18.27;100.00
71907;BME280;59781;52.090;5.030;2022-08-18T00:47:55;101291.66;;;18.09;100.00
71907;BME280;59781;52.090;5.030;2022-08-18T00:50:46;101298.16;;;17.95;100.00
71907;BME280;59781;52.090;5.030;2022-08-18T00:53:23;101311.34;;;17.98;100.00
71907;BME280;59781;52.090;5.030;2022-08-18T00:56:04;101313.47;;;17.96;100.00
71907;BME280;59781;52.090;5.030;2022-08-18T00:58:41;101306.97;;;17.84;100.00
71907;BME280;59781;52.090;5.030;2022-08-18T01:01:12;101313.25;;;17.84;100.00
71907;BME280;59781;52.090;5.030;2022-08-18T01:03:43;101317.66;;;17.98;100.00
71907;BME280;59781;52.090;5.030;2022-08-18T01:09:15;101314.72;;;18.06;100.00
71907;BME280;59781;52.090;5.030;2022-08-18T01:11:42;101312.00;;;18.06;100.00
71907;BME280;59781;52.090;5.030;2022-08-18T01:14:11;101315.97;;;17.97;100.00
71907;BME280;59781;52.090;5.030;2022-08-18T01:16:41;101318.91;;;18.09;100.00
71907;BME280;59781;52.090;5.030;2022-08-18T01:19:28;101314.53;;;18.15;100.00
71907;BME280;59781;52.090;5.030;2022-08-18T01:22:24;101316.19;;;18.02;100.00
71907;BME280;59781;52.090;5.030;2022-08-18T01:25:24;101314.94;;;17.92;100.00
71907;BME280;59781;52.090;5.030;2022-08-18T01:28:09;101312.81;;;17.87;100.00
71907;BME280;59781;52.090;5.030;2022-08-18T01:30:50;101310.09;;;17.81;100.00
71907;BME280;59781;52.090;5.030;2022-08-18T01:33:20;101303.16;;;17.78;100.00
71907;BME280;59781;52.090;5.030;2022-08-18T01:35:48;101303.75;;;17.67;100.00
71907;BME280;59781;52.090;5.030;2022-08-18T01:38:18;101314.28;;;17.70;100.00
71907;BME280;59781;52.090;5.030;2022-08-18T01:40:48;101316.13;;;17.69;100.00
71907;BME280;59781;52.090;5.030;2022-08-18T01:43:16;101309.03;;;17.75;100.00
71907;BME280;59781;52.090;5.030;2022-08-18T01:45:42;101300.19;;;17.66;100.00
71907;BME280;59781;52.090;5.030;2022-08-18T01:48:09;101304.00;;;17.72;100.00
71907;BME280;59781;52.090;5.030;2022-08-18T01:50:36;101307.31;;;17.67;100.00
71907;BME280;59781;52.090;5.030;2022-08-18T01:53:05;101315.88;;;17.58;100.00
71907;BME280;59781;52.090;5.030;2022-08-18T01:55:37;101322.91;;;18.06;100.00
71907;BME280;59781;52.090;5.030;2022-08-18T01:58:06;101325.84;;;18.25;100.00
71907;BME280;59781;52.090;5.030;2022-08-18T02:00:32;101333.41;;;18.03;100.00
71907;BME280;59781;52.090;5.030;2022-08-18T02:03:05;101327.47;;;17.73;100.00
71907;BME280;59781;52.090;5.030;2022-08-18T02:05:41;101323.84;;;17.59;100.00
71907;BME280;59781;52.090;5.030;2022-08-18T02:08:10;101330.28;;;17.45;100.00
71907;BME280;59781;52.090;5.030;2022-08-18T02:10:40;101332.38;;;17.43;100.00
71907;BME280;59781;52.090;5.030;2022-08-18T02:13:07;101333.03;;;17.45;100.00
71907;BME280;59781;52.090;5.030;2022-08-18T02:15:33;101340.34;;;17.44;100.00
71907;BME280;59781;52.090;5.030;2022-08-18T02:17:59;101338.28;;;17.53;100.00
71907;BME280;59781;52.090;5.030;2022-08-18T02:20:27;101338.75;;;17.63;100.00
71907;BME280;59781;52.090;5.030;2022-08-18T02:22:53;101336.63;;;17.65;100.00
71907;BME280;59781;52.090;5.030;2022-08-18T02:25:19;101342.16;;;17.78;100.00
71907;BME280;59781;52.090;5.030;2022-08-18T02:27:45;101333.34;;;17.76;100.00
71907;BME280;59781;52.090;5.030;2022-08-18T02:30:15;101336.50;;;17.80;100.00
71907;BME280;59781;52.090;5.030;2022-08-18T02:32:43;101337.97;;;17.83;100.00
71907;BME280;59781;52.090;5.030;2022-08-18T02:35:09;101337.56;;;17.92;100.00
71907;BME280;59781;52.090;5.030;2022-08-18T02:37:36;101331.69;;;17.95;100.00
71907;BME280;59781;52.090;5.030;2022-08-18T02:40:04;101336.53;;;18.00;100.00
71907;BME280;59781;52.090;5.030;2022-08-18T02:42:30;101333.19;;;17.91;100.00
71907;BME280;59781;52.090;5.030;2022-08-18T02:44:56;101345.13;;;17.90;100.00
71907;BME280;59781;52.090;5.030;2022-08-18T02:47:23;101348.88;;;17.89;100.00
71907;BME280;59781;52.090;5.030;2022-08-18T02:49:49;101351.19;;;17.86;100.00
71907;BME280;59781;52.090;5.030;2022-08-18T02:52:15;101349.06;;;17.88;100.00
71907;BME280;59781;52.090;5.030;2022-08-18T02:54:42;101352.44;;;17.96;100.00
71907;BME280;59781;52.090;5.030;2022-08-18T02:57:10;101356.41;;;17.87;100.00
71907;BME280;59781;52.090;5.030;2022-08-18T02:59:38;101351.16;;;17.79;100.00
71907;BME280;59781;52.090;5.030;2022-08-18T03:02:06;101341.31;;;17.71;100.00
71907;BME280;59781;52.090;5.030;2022-08-18T03:04:33;101343.75;;;17.66;100.00
71907;BME280;59781;52.090;5.030;2022-08-18T03:07:02;101338.94;;;17.62;100.00
71907;BME280;59781;52.090;5.030;2022-08-18T03:09:30;101343.94;;;17.58;100.00
71907;BME280;59781;52.090;5.030;2022-08-18T03:11:57;101347.72;;;17.51;100.00
71907;BME280;59781;52.090;5.030;2022-08-18T03:14:26;101344.97;;;17.44;100.00
71907;BME280;59781;52.090;5.030;2022-08-18T03:16:52;101351.22;;;17.38;100.00
71907;BME280;59781;52.090;5.030;2022-08-18T03:19:18;101353.72;;;17.39;100.00
71907;BME280;59781;52.090;5.030;2022-08-18T03:21:46;101352.09;;;17.45;100.00
71907;BME280;59781;52.090;5.030;2022-08-18T03:24:13;101353.75;;;17.46;100.00
71907;BME280;59781;52.090;5.030;2022-08-18T03:26:43;101357.28;;;17.40;100.00
71907;BME280;59781;52.090;5.030;2022-08-18T03:29:10;101353.50;;;17.34;100.00
71907;BME280;59781;52.090;5.030;2022-08-18T03:31:36;101359.59;;;17.36;100.00
71907;BME280;59781;52.090;5.030;2022-08-18T03:34:04;101362.56;;;17.41;100.00
71907;BME280;59781;52.090;5.030;2022-08-18T03:36:32;101346.59;;;17.38;100.00
71907;BME280;59781;52.090;5.030;2022-08-18T03:39:04;101351.25;;;17.44;100.00
71907;BME280;59781;52.090;5.030;2022-08-18T03:41:31;101355.63;;;17.45;100.00
71907;BME280;59781;52.090;5.030;2022-08-18T03:43:57;101360.06;;;17.60;100.00
71907;BME280;59781;52.090;5.030;2022-08-18T03:46:25;101368.91;;;17.62;100.00
71907;BME280;59781;52.090;5.030;2022-08-18T03:48:50;101363.47;;;17.68;100.00
71907;BME280;59781;52.090;5.030;2022-08-18T03:51:35;101368.34;;;17.80;100.00
71907;BME280;59781;52.090;5.030;2022-08-18T03:54:04;101367.09;;;17.89;100.00
71907;BME280;59781;52.090;5.030;2022-08-18T03:56:34;101362.69;;;17.74;100.00
71907;BME280;59781;52.090;5.030;2022-08-18T03:59:11;101365.13;;;17.63;100.00
71907;BME280;59781;52.090;5.030;2022-08-18T04:01:41;101365.53;;;17.53;100.00
71907;BME280;59781;52.090;5.030;2022-08-18T04:04:14;101362.59;;;17.55;100.00
71907;BME280;59781;52.090;5.030;2022-08-18T04:06:49;101358.63;;;17.57;100.00
71907;BME280;59781;52.090;5.030;2022-08-18T04:09:27;101345.84;;;17.58;100.00
71907;BME280;59781;52.090;5.030;2022-08-18T04:11:55;101347.06;;;17.42;100.00
71907;BME280;59781;52.090;5.030;2022-08-18T04:14:24;101350.38;;;17.31;100.00
71907;BME280;59781;52.090;5.030;2022-08-18T04:16:56;101342.25;;;17.44;100.00
71907;BME280;59781;52.090;5.030;2022-08-18T04:19:23;101338.84;;;17.35;100.00
71907;BME280;59781;52.090;5.030;2022-08-18T04:21:51;101344.50;;;17.34;100.00
71907;BME280;59781;52.090;5.030;2022-08-18T04:24:19;101345.28;;;17.21;100.00
71907;BME280;59781;52.090;5.030;2022-08-18T04:26:47;101344.63;;;17.19;100.00
71907;BME280;59781;52.090;5.030;2022-08-18T04:29:15;101352.16;;;17.17;100.00
71907;BME280;59781;52.090;5.030;2022-08-18T04:31:43;101354.63;;;17.05;100.00
71907;BME280;59781;52.090;5.030;2022-08-18T04:34:09;101350.91;;;17.13;100.00
71907;BME280;59781;52.090;5.030;2022-08-18T04:36:36;101347.97;;;17.14;100.00
71907;BME280;59781;52.090;5.030;2022-08-18T04:39:06;101336.81;;;17.03;100.00
71907;BME280;59781;52.090;5.030;2022-08-18T04:41:35;101331.22;;;17.11;100.00
71907;BME280;59781;52.090;5.030;2022-08-18T04:44:05;101330.56;;;17.09;100.00
71907;BME280;59781;52.090;5.030;2022-08-18T04:46:41;101339.19;;;17.12;100.00
71907;BME280;59781;52.090;5.030;2022-08-18T04:49:11;101336.47;;;17.19;100.00
71907;BME280;59781;52.090;5.030;2022-08-18T04:51:43;101339.81;;;17.14;100.00
71907;BME280;59781;52.090;5.030;2022-08-18T04:54:32;101343.59;;;17.20;100.00
71907;BME280;59781;52.090;5.030;2022-08-18T04:59:33;101350.91;;;17.19;100.00
71907;BME280;59781;52.090;5.030;2022-08-18T05:02:00;101349.47;;;17.24;100.00
71907;BME280;59781;52.090;5.030;2022-08-18T05:04:30;101359.59;;;17.36;100.00
71907;BME280;59781;52.090;5.030;2022-08-18T05:06:56;101352.50;;;17.42;100.00
71907;BME280;59781;52.090;5.030;2022-08-18T05:09:23;101354.00;;;17.51;100.00
71907;BME280;59781;52.090;5.030;2022-08-18T05:11:49;101361.56;;;17.62;100.00
71907;BME280;59781;52.090;5.030;2022-08-18T05:14:15;101364.16;;;17.70;100.00
71907;BME280;59781;52.090;5.030;2022-08-18T05:16:41;101369.81;;;17.89;100.00
71907;BME280;59781;52.090;5.030;2022-08-18T05:19:09;101370.88;;;17.88;100.00
71907;BME280;59781;52.090;5.030;2022-08-18T05:21:39;101378.25;;;18.00;100.00
71907;BME280;59781;52.090;5.030;2022-08-18T05:24:08;101374.88;;;17.98;100.00
71907;BME280;59781;52.090;5.030;2022-08-18T05:26:35;101368.19;;;18.08;100.00
71907;BME280;59781;52.090;5.030;2022-08-18T05:29:01;101365.47;;;18.08;100.00
71907;BME280;59781;52.090;5.030;2022-08-18T05:31:29;101364.22;;;18.10;100.00
71907;BME280;59781;52.090;5.030;2022-08-18T05:33:56;101369.69;;;18.23;100.00
71907;BME280;59781;52.090;5.030;2022-08-18T05:42:07;101351.66;;;18.42;100.00
71907;BME280;59781;52.090;5.030;2022-08-18T05:44:47;101358.16;;;18.61;100.00
71907;BME280;59781;52.090;5.030;2022-08-18T05:47:24;101367.81;;;18.70;100.00
71907;BME280;59781;52.090;5.030;2022-08-18T05:49:56;101360.16;;;19.18;98.94
71907;BME280;59781;52.090;5.030;2022-08-18T05:55:15;101367.16;;;19.97;93.02
71907;BME280;59781;52.090;5.030;2022-08-18T05:58:13;101357.53;;;20.20;90.60
71907;BME280;59781;52.090;5.030;2022-08-18T06:00:50;101357.06;;;20.23;92.56
71907;BME280;59781;52.090;5.030;2022-08-18T06:03:31;101339.84;;;21.09;87.88
71907;BME280;59781;52.090;5.030;2022-08-18T06:06:39;101354.19;;;20.43;90.49
71907;BME280;59781;52.090;5.030;2022-08-18T06:09:37;101337.78;;;21.59;83.83
71907;BME280;59781;52.090;5.030;2022-08-18T06:12:37;101341.03;;;21.68;83.64
71907;BME280;59781;52.090;5.030;2022-08-18T06:15:51;101341.75;;;21.63;83.88
71907;BME280;59781;52.090;5.030;2022-08-18T06:22:05;101334.53;;;22.22;81.83
71907;BME280;59781;52.090;5.030;2022-08-18T06:24:51;101341.59;;;23.00;78.58
71907;BME280;59781;52.090;5.030;2022-08-18T06:27:54;101337.91;;;22.95;77.61
71907;BME280;59781;52.090;5.030;2022-08-18T06:39:30;101347.19;;;23.86;72.59
71907;BME280;59781;52.090;5.030;2022-08-18T06:42:27;101351.41;;;24.05;72.40
71907;BME280;59781;52.090;5.030;2022-08-18T06:45:18;101350.31;;;23.89;73.47
71907;BME280;59781;52.090;5.030;2022-08-18T06:48:14;101344.38;;;23.97;73.33
71907;BME280;59781;52.090;5.030;2022-08-18T06:50:57;101359.28;;;24.80;69.70
71907;BME280;59781;52.090;5.030;2022-08-18T06:53:52;101362.97;;;24.69;71.22
71907;BME280;59781;52.090;5.030;2022-08-18T06:56:47;101358.56;;;24.35;71.52
71907;BME280;59781;52.090;5.030;2022-08-18T06:59:25;101366.34;;;25.10;68.78
71907;BME280;59781;52.090;5.030;2022-08-18T07:02:21;101374.81;;;24.70;71.01
71907;BME280;59781;52.090;5.030;2022-08-18T07:05:12;101367.47;;;25.14;68.82
71907;BME280;59781;52.090;5.030;2022-08-18T07:08:19;101364.72;;;25.36;67.46
71907;BME280;59781;52.090;5.030;2022-08-18T07:11:26;101376.59;;;25.36;68.49
71907;BME280;59781;52.090;5.030;2022-08-18T07:13:57;101372.75;;;25.59;66.75
71907;BME280;59781;52.090;5.030;2022-08-18T07:16:38;101380.19;;;25.15;69.22
71907;BME280;59781;52.090;5.030;2022-08-18T07:19:06;101377.69;;;25.13;69.57
71907;BME280;59781;52.090;5.030;2022-08-18T07:21:34;101376.72;;;25.46;67.99
71907;BME280;59781;52.090;5.030;2022-08-18T07:24:20;101388.50;;;25.86;66.30
71907;BME280;59781;52.090;5.030;2022-08-18T07:27:06;101397.00;;;24.80;69.93
71907;BME280;59781;52.090;5.030;2022-08-18T07:29:37;101390.38;;;23.85;73.08
71907;BME280;59781;52.090;5.030;2022-08-18T07:32:28;101381.03;;;25.59;67.58
71907;BME280;59781;52.090;5.030;2022-08-18T07:35:05;101390.44;;;26.12;64.84
71907;BME280;59781;52.090;5.030;2022-08-18T07:38:40;101394.22;;;26.33;64.32
71907;BME280;59781;52.090;5.030;2022-08-18T07:41:38;101393.84;;;26.46;64.40
71907;BME280;59781;52.090;5.030;2022-08-18T07:47:47;101400.94;;;26.15;64.06
71907;BME280;59781;52.090;5.030;2022-08-18T07:50:20;101400.84;;;27.01;61.95
71907;BME280;59781;52.090;5.030;2022-08-18T07:53:11;101403.03;;;26.94;62.50
71907;BME280;59781;52.090;5.030;2022-08-18T07:55:42;101395.94;;;27.08;59.68
71907;BME280;59781;52.090;5.030;2022-08-18T07:58:21;101401.59;;;26.92;62.40
71907;BME280;59781;52.090;5.030;2022-08-18T08:04:35;101404.56;;;27.75;58.53
71907;BME280;59781;52.090;5.030;2022-08-18T08:07:22;101403.19;;;27.82;56.89
71907;BME280;59781;52.090;5.030;2022-08-18T08:14:21;101397.78;;;28.53;56.27
71907;BME280;59781;52.090;5.030;2022-08-18T08:17:31;101399.50;;;26.67;59.76
71907;BME280;59781;52.090;5.030;2022-08-18T08:24:12;101400.06;;;26.37;63.04
71907;BME280;59781;52.090;5.030;2022-08-18T08:27:23;101401.59;;;25.08;65.73
71907;BME280;59781;52.090;5.030;2022-08-18T08:30:45;101404.06;;;24.25;67.76
71907;BME280;59781;52.090;5.030;2022-08-18T08:34:13;101402.47;;;23.84;70.28
71907;BME280;59781;52.090;5.030;2022-08-18T08:38:02;101397.34;;;24.04;69.71
71907;BME280;59781;52.090;5.030;2022-08-18T08:41:38;101400.94;;;24.05;70.92
71907;BME280;59781;52.090;5.030;2022-08-18T08:44:46;101383.13;;;25.08;68.17
71907;BME280;59781;52.090;5.030;2022-08-18T08:54:27;101397.00;;;23.32;72.71
71907;BME280;59781;52.090;5.030;2022-08-18T09:02:22;101393.56;;;25.94;63.98
71907;BME280;59781;52.090;5.030;2022-08-18T09:06:04;101393.38;;;27.49;61.22
71907;BME280;59781;52.090;5.030;2022-08-18T09:24:46;101397.50;;;25.32;65.14
71907;BME280;59781;52.090;5.030;2022-08-18T09:45:39;101404.41;;;28.83;52.05
71907;BME280;59781;52.090;5.030;2022-08-18T09:48:36;101394.44;;;28.82;50.86
71907;BME280;59781;52.090;5.030;2022-08-18T09:55:05;101388.78;;;29.87;49.92
71907;BME280;59781;52.090;5.030;2022-08-18T09:58:57;101389.97;;;28.05;52.63
71907;BME280;59781;52.090;5.030;2022-08-18T10:02:08;101391.34;;;27.97;52.82
71907;BME280;59781;52.090;5.030;2022-08-18T10:06:16;101384.97;;;27.24;54.75
71907;BME280;59781;52.090;5.030;2022-08-18T10:09:41;101377.00;;;27.42;53.77
71907;BME280;59781;52.090;5.030;2022-08-18T10:21:17;101365.69;;;29.53;48.41
71907;BME280;59781;52.090;5.030;2022-08-18T10:23:48;101374.47;;;28.09;52.84
71907;BME280;59781;52.090;5.030;2022-08-18T10:29:10;101376.53;;;26.61;58.57
71907;BME280;59781;52.090;5.030;2022-08-18T10:38:34;101387.16;;;27.17;56.47
71907;BME280;59781;52.090;5.030;2022-08-18T10:41:22;101371.41;;;28.20;53.81
71907;BME280;59781;52.090;5.030;2022-08-18T10:43:55;101369.13;;;29.79;49.92
71907;BME280;59781;52.090;5.030;2022-08-18T10:46:42;101374.66;;;29.84;49.31
71907;BME280;59781;52.090;5.030;2022-08-18T10:51:54;101374.72;;;31.10;45.83
71907;BME280;59781;52.090;5.030;2022-08-18T10:57:29;101379.91;;;29.26;47.38
71907;BME280;59781;52.090;5.030;2022-08-18T11:00:18;101374.44;;;27.88;51.20
71907;BME280;59781;52.090;5.030;2022-08-18T11:05:40;101377.56;;;28.63;50.04
71907;BME280;59781;52.090;5.030;2022-08-18T11:08:13;101384.97;;;28.12;52.60
71907;BME280;59781;52.090;5.030;2022-08-18T11:10:47;101380.94;;;27.52;55.21
71907;BME280;59781;52.090;5.030;2022-08-18T11:13:23;101373.19;;;27.43;54.36
71907;BME280;59781;52.090;5.030;2022-08-18T11:16:28;101373.81;;;27.66;53.69
71907;BME280;59781;52.090;5.030;2022-08-18T11:19:09;101378.44;;;27.45;56.69
71907;BME280;59781;52.090;5.030;2022-08-18T11:21:42;101375.34;;;27.41;54.66
71907;BME280;59781;52.090;5.030;2022-08-18T11:24:22;101373.41;;;27.42;54.65
71907;BME280;59781;52.090;5.030;2022-08-18T11:26:58;101369.44;;;27.75;53.44
71907;BME280;59781;52.090;5.030;2022-08-18T11:29:31;101359.38;;;29.32;49.62
71907;BME280;59781;52.090;5.030;2022-08-18T11:32:13;101365.38;;;29.98;49.46
71907;BME280;59781;52.090;5.030;2022-08-18T11:42:59;101357.03;;;28.59;50.58
71907;BME280;59781;52.090;5.030;2022-08-18T11:56:31;101343.22;;;29.39;47.58
71907;BME280;59781;52.090;5.030;2022-08-18T11:59:08;101340.34;;;30.09;45.29
71907;BME280;59781;52.090;5.030;2022-08-18T12:02:01;101336.00;;;30.32;44.91
71907;BME280;59781;52.090;5.030;2022-08-18T12:04:38;101332.13;;;29.93;47.15
71907;BME280;59781;52.090;5.030;2022-08-18T12:07:15;101346.75;;;28.85;50.94
71907;BME280;59781;52.090;5.030;2022-08-18T12:10:13;101340.41;;;28.18;52.70
71907;BME280;59781;52.090;5.030;2022-08-18T12:12:50;101337.59;;;27.88;52.42
71907;BME280;59781;52.090;5.030;2022-08-18T12:17:45;101338.56;;;27.36;55.48
71907;BME280;59781;52.090;5.030;2022-08-18T12:20:14;101327.47;;;27.31;55.22
71907;BME280;59781;52.090;5.030;2022-08-18T12:22:42;101321.47;;;27.59;55.09
71907;BME280;59781;52.090;5.030;2022-08-18T12:25:14;101317.41;;;28.08;53.07
71907;BME280;59781;52.090;5.030;2022-08-18T12:27:42;101325.19;;;28.41;51.48
71907;BME280;59781;52.090;5.030;2022-08-18T12:30:10;101330.16;;;28.14;53.10
71907;BME280;59781;52.090;5.030;2022-08-18T12:32:37;101333.16;;;28.78;51.70
71907;BME280;59781;52.090;5.030;2022-08-18T12:35:09;101329.91;;;29.41;48.30
71907;BME280;59781;52.090;5.030;2022-08-18T12:37:36;101320.38;;;30.41;46.61
71907;BME280;59781;52.090;5.030;2022-08-18T12:40:06;101325.09;;;30.40;44.63
71907;BME280;59781;52.090;5.030;2022-08-18T12:42:33;101321.28;;;30.89;44.66
71907;BME280;59781;52.090;5.030;2022-08-18T12:44:59;101325.50;;;31.05;45.49
71907;BME280;59781;52.090;5.030;2022-08-18T12:47:25;101332.44;;;30.26;45.47
71907;BME280;59781;52.090;5.030;2022-08-18T12:49:53;101325.38;;;30.10;47.23
71907;BME280;59781;52.090;5.030;2022-08-18T12:52:19;101327.63;;;29.97;46.83
71907;BME280;59781;52.090;5.030;2022-08-18T12:54:46;101324.88;;;29.53;47.38
71907;BME280;59781;52.090;5.030;2022-08-18T12:57:20;101338.94;;;29.67;45.55
71907;BME280;59781;52.090;5.030;2022-08-18T12:59:48;101334.19;;;30.46;45.80
71907;BME280;59781;52.090;5.030;2022-08-18T13:02:17;101331.28;;;30.90;44.06
71907;BME280;59781;52.090;5.030;2022-08-18T13:04:43;101328.09;;;30.78;43.33
71907;BME280;59781;52.090;5.030;2022-08-18T13:07:11;101336.13;;;30.50;43.88
71907;BME280;59781;52.090;5.030;2022-08-18T13:09:38;101336.81;;;29.49;47.42
71907;BME280;59781;52.090;5.030;2022-08-18T13:12:04;101339.59;;;29.49;46.26
71907;BME280;59781;52.090;5.030;2022-08-18T13:14:31;101333.66;;;29.70;46.80
71907;BME280;59781;52.090;5.030;2022-08-18T13:16:57;101330.34;;;30.08;44.66
71907;BME280;59781;52.090;5.030;2022-08-18T13:19:24;101333.16;;;29.58;47.29
71907;BME280;59781;52.090;5.030;2022-08-18T13:21:50;101333.75;;;29.99;44.74
71907;BME280;59781;52.090;5.030;2022-08-18T13:24:17;101345.63;;;28.96;47.70
71907;BME280;59781;52.090;5.030;2022-08-18T13:26:45;101343.72;;;28.51;47.67
71907;BME280;59781;52.090;5.030;2022-08-18T13:29:16;101347.91;;;28.28;50.17
71907;BME280;59781;52.090;5.030;2022-08-18T13:31:44;101358.38;;;28.00;50.38
71907;BME280;59781;52.090;5.030;2022-08-18T13:34:10;101363.41;;;28.39;49.06
71907;BME280;59781;52.090;5.030;2022-08-18T13:36:38;101363.66;;;28.27;49.22
71907;BME280;59781;52.090;5.030;2022-08-18T13:39:16;101368.94;;;28.04;49.75
71907;BME280;59781;52.090;5.030;2022-08-18T13:41:45;101368.94;;;28.04;51.82
71907;BME280;59781;52.090;5.030;2022-08-18T13:44:14;101373.94;;;28.57;50.03
71907;BME280;59781;52.090;5.030;2022-08-18T13:46:45;101373.34;;;28.96;48.89
71907;BME280;59781;52.090;5.030;2022-08-18T13:49:15;101371.75;;;28.34;48.63
71907;BME280;59781;52.090;5.030;2022-08-18T13:51:44;101370.72;;;27.57;50.35
71907;BME280;59781;52.090;5.030;2022-08-18T13:54:25;101357.44;;;27.54;51.24
71907;BME280;59781;52.090;5.030;2022-08-18T13:56:53;101372.72;;;27.67;52.20
71907;BME280;59781;52.090;5.030;2022-08-18T13:59:21;101369.44;;;27.85;50.33
71907;BME280;59781;52.090;5.030;2022-08-18T14:01:49;101364.91;;;27.54;51.88
71907;BME280;59781;52.090;5.030;2022-08-18T14:04:16;101371.25;;;26.97;52.46
71907;BME280;59781;52.090;5.030;2022-08-18T14:06:43;101369.22;;;26.45;52.77
71907;BME280;59781;52.090;5.030;2022-08-18T14:09:09;101367.47;;;27.08;50.82
71907;BME280;59781;52.090;5.030;2022-08-18T14:11:36;101373.06;;;27.18;54.16
71907;BME280;59781;52.090;5.030;2022-08-18T14:14:03;101365.75;;;27.54;52.26
71907;BME280;59781;52.090;5.030;2022-08-18T14:16:32;101364.47;;;27.87;51.21
71907;BME280;59781;52.090;5.030;2022-08-18T14:18:59;101361.25;;;27.43;50.89
71907;BME280;59781;52.090;5.030;2022-08-18T14:21:47;101356.06;;;27.62;53.00
71907;BME280;59781;52.090;5.030;2022-08-18T14:24:35;101349.66;;;27.46;51.71
71907;BME280;59781;52.090;5.030;2022-08-18T14:27:32;101347.97;;;27.35;53.81
71907;BME280;59781;52.090;5.030;2022-08-18T14:30:11;101352.91;;;27.33;53.59
71907;BME280;59781;52.090;5.030;2022-08-18T14:32:39;101362.34;;;27.37;55.20
71907;BME280;59781;52.090;5.030;2022-08-18T14:35:09;101362.31;;;27.32;53.54
71907;BME280;59781;52.090;5.030;2022-08-18T14:37:37;101365.06;;;27.32;54.26
71907;BME280;59781;52.090;5.030;2022-08-18T14:40:05;101358.91;;;26.67;54.73
71907;BME280;59781;52.090;5.030;2022-08-18T14:42:32;101353.81;;;26.54;57.52
71907;BME280;59781;52.090;5.030;2022-08-18T14:44:58;101352.59;;;26.77;54.86
71907;BME280;59781;52.090;5.030;2022-08-18T14:47:25;101351.91;;;26.97;54.02
71907;BME280;59781;52.090;5.030;2022-08-18T14:49:52;101346.53;;;26.75;54.83
71907;BME280;59781;52.090;5.030;2022-08-18T14:52:21;101340.84;;;26.22;56.02
71907;BME280;59781;52.090;5.030;2022-08-18T14:54:48;101333.09;;;25.92;57.27
71907;BME280;59781;52.090;5.030;2022-08-18T14:57:15;101334.13;;;26.13;58.19
71907;BME280;59781;52.090;5.030;2022-08-18T14:59:41;101321.22;;;26.98;55.76
71907;BME280;59781;52.090;5.030;2022-08-18T15:02:09;101324.25;;;27.54;53.59
71907;BME280;59781;52.090;5.030;2022-08-18T15:04:36;101331.44;;;27.60;53.71
71907;BME280;59781;52.090;5.030;2022-08-18T15:07:04;101314.16;;;27.23;54.78
71907;BME280;59781;52.090;5.030;2022-08-18T15:09:33;101327.84;;;27.55;54.03
71907;BME280;59781;52.090;5.030;2022-08-18T15:12:00;101320.03;;;27.36;54.21
71907;BME280;59781;52.090;5.030;2022-08-18T15:14:29;101313.88;;;27.19;54.21
71907;BME280;59781;52.090;5.030;2022-08-18T15:17:03;101322.81;;;27.47;53.50
71907;BME280;59781;52.090;5.030;2022-08-18T15:19:31;101322.53;;;27.48;52.68
71907;BME280;59781;52.090;5.030;2022-08-18T15:21:57;101327.00;;;27.54;53.68
71907;BME280;59781;52.090;5.030;2022-08-18T15:24:41;101327.25;;;27.53;53.70
71907;BME280;59781;52.090;5.030;2022-08-18T15:27:31;101319.63;;;28.21;50.85
71907;BME280;59781;52.090;5.030;2022-08-18T15:30:01;101314.38;;;28.04;51.78
71907;BME280;59781;52.090;5.030;2022-08-18T15:32:44;101320.75;;;27.11;51.96
71907;BME280;59781;52.090;5.030;2022-08-18T15:35:14;101318.88;;;27.27;51.92
71907;BME280;59781;52.090;5.030;2022-08-18T15:37:41;101329.00;;;27.69;51.91
71907;BME280;59781;52.090;5.030;2022-08-18T15:40:16;101328.75;;;27.08;53.25
71907;BME280;59781;52.090;5.030;2022-08-18T15:42:46;101331.53;;;27.13;52.99
71907;BME280;59781;52.090;5.030;2022-08-18T15:45:19;101321.81;;;27.88;51.00
71907;BME280;59781;52.090;5.030;2022-08-18T15:47:52;101322.53;;;27.48;51.64
71907;BME280;59781;52.090;5.030;2022-08-18T15:50:20;101326.16;;;27.59;51.97
71907;BME280;59781;52.090;5.030;2022-08-18T15:52:48;101317.97;;;27.11;53.57